Time;durP1;ratioP1;P1;durP2;ratioP2;P2;SDS_P1;SDS_P2;PMS_P1;PMS_P2;Temp;Humidity;BMP_temperature;BMP_pressure;BME280_temperature;BME280_humidity;BME280_pressure;Samples;Min_cycle;Max_cycle;Signal;HPM_P1;HPM_P2
2024/01/27 00:01:51;;;;;;;0.00;0.00;;;;;;;4.76;70.28;102139.00;15670395;28;20474;-46
2024/01/27 00:09:28;;;;;;;0.30;0.30;;;;;;;4.82;68.91;102149.91;15679281;28;20045;-49
2024/01/27 00:17:06;;;;;;;0.00;0.00;;;;;;;4.86;68.25;102146.00;15673078;28;20040;-47
2024/01/27 00:24:40;;;;;;;0.00;0.00;;;;;;;4.99;67.35;102155.50;15652221;28;20049;-52
2024/01/27 00:32:16;;;;;;;0.00;0.00;;;;;;;4.98;67.52;102167.97;15673971;28;20041;-46
2024/01/27 00:39:51;;;;;;;0.00;0.00;;;;;;;4.82;68.44;102163.22;15672532;28;20052;-45
2024/01/27 00:47:24;;;;;;;0.00;0.00;;;;;;;4.80;69.51;102178.47;15698047;28;20381;-47
2024/01/27 00:54:59;;;;;;;;;;;;;;;4.60;70.12;102184.72;15724627;28;20428;-47
2024/01/27 01:02:33;;;;;;;0.00;0.00;;;;;;;4.67;70.19;102190.34;15667491;28;19947;-49
2024/01/27 01:10:09;;;;;;;0.00;0.00;;;;;;;4.51;70.75;102194.34;15673757;28;20055;-51
2024/01/27 01:17:43;;;;;;;1.17;0.73;;;;;;;4.52;70.54;102190.72;15724896;22;20140;-76
2024/01/27 01:25:18;;;;;;;0.00;0.00;;;;;;;4.35;70.26;102164.78;15712257;28;20040;-76
2024/01/27 01:32:52;;;;;;;0.30;0.30;;;;;;;4.52;70.39;102200.50;15689691;28;20052;-76
2024/01/27 01:40:27;;;;;;;0.47;0.47;;;;;;;4.18;71.38;102224.69;15694668;28;20529;-75
2024/01/27 01:48:01;;;;;;;0.00;0.00;;;;;;;4.42;70.35;102202.28;15725414;28;20123;-76
2024/01/27 01:55:36;;;;;;;0.00;0.00;;;;;;;4.33;70.89;102201.25;15700964;28;20114;-76
2024/01/27 02:03:12;;;;;;;0.00;0.00;;;;;;;4.32;70.61;102200.41;15727170;28;20094;-76
2024/01/27 02:10:47;;;;;;;0.20;0.20;;;;;;;4.34;70.54;102205.63;15757710;28;20117;-75
2024/01/27 02:18:21;;;;;;;0.00;0.00;;;;;;;4.42;70.45;102213.75;15712332;28;20107;-76
2024/01/27 02:25:56;;;;;;;0.20;0.20;;;;;;;4.43;70.16;102207.47;15709890;28;20044;-76
2024/01/27 02:33:30;;;;;;;0.00;0.00;;;;;;;4.12;70.86;102225.22;15709609;28;20045;-76
2024/01/27 02:41:06;;;;;;;0.00;0.00;;;;;;;4.18;71.07;102250.44;15692302;28;20062;-75
2024/01/27 02:48:41;;;;;;;0.00;0.00;;;;;;;4.10;71.30;102237.78;15728809;28;20041;-76
2024/01/27 02:56:17;;;;;;;0.00;0.00;;;;;;;4.05;71.68;102256.78;15716723;28;20154;-76
2024/01/27 03:03:50;;;;;;;0.00;0.00;;;;;;;3.88;71.91;102265.34;15718575;28;20060;-76
2024/01/27 03:11:26;;;;;;;0.00;0.00;;;;;;;3.94;71.81;102264.81;15712366;28;20051;-77
2024/01/27 03:19:03;;;;;;;9.13;2.17;;;;;;;3.84;72.57;102267.41;15731851;28;20066;-76
2024/01/27 03:26:38;;;;;;;0.00;0.00;;;;;;;3.87;72.26;102269.00;15718580;28;20058;-73
2024/01/27 03:34:12;;;;;;;0.00;0.00;;;;;;;3.68;72.92;102279.44;15734686;28;20554;-76
2024/01/27 03:41:47;;;;;;;0.20;0.20;;;;;;;4.00;72.00;102293.53;15718857;28;20044;-76
2024/01/27 03:49:23;;;;;;;0.00;0.00;;;;;;;3.76;72.99;102300.91;15736692;28;20055;-76
2024/01/27 03:56:59;;;;;;;0.28;0.28;;;;;;;3.80;72.99;102297.03;15734661;28;20037;-77
2024/01/27 04:04:33;;;;;;;0.38;0.38;;;;;;;3.84;72.76;102303.75;15717839;28;20048;-76
2024/01/27 04:12:09;;;;;;;0.00;0.00;;;;;;;3.74;73.31;102324.09;15714806;28;20514;-76
2024/01/27 04:19:43;;;;;;;0.00;0.00;;;;;;;3.77;73.50;102321.16;15712044;28;20037;-76
2024/01/27 04:27:18;;;;;;;0.00;0.00;;;;;;;3.63;74.15;102334.75;15727077;28;20480;-77
2024/01/27 04:34:51;;;;;;;0.00;0.00;;;;;;;3.58;74.20;102327.16;15731483;28;20083;-77
2024/01/27 04:42:27;;;;;;;0.00;0.00;;;;;;;3.59;74.74;102339.47;15714883;28;20118;-77
2024/01/27 04:50:01;;;;;;;0.00;0.00;;;;;;;3.59;74.78;102376.66;15730716;28;20381;-77
2024/01/27 04:57:36;;;;;;;0.00;0.00;;;;;;;3.74;74.19;102387.84;15714348;28;20037;-76
2024/01/27 05:05:12;;;;;;;1.85;1.75;;;;;;;3.87;73.92;102396.50;15715485;28;20036;-77
2024/01/27 05:12:48;;;;;;;0.05;0.05;;;;;;;4.16;73.45;102404.72;15728759;28;20033;-77
2024/01/27 05:20:22;;;;;;;0.70;0.70;;;;;;;3.80;73.51;102387.31;15713627;28;20449;-77
2024/01/27 05:27:57;;;;;;;0.03;0.03;;;;;;;3.99;73.57;102411.41;15729018;28;20090;-77
2024/01/27 05:35:31;;;;;;;0.52;0.52;;;;;;;4.08;73.87;102439.88;15723872;28;20479;-76
2024/01/27 05:43:06;;;;;;;0.00;0.00;;;;;;;4.08;73.92;102441.69;15707744;28;20526;-77
2024/01/27 05:50:43;;;;;;;0.15;0.15;;;;;;;4.41;73.18;102458.47;15723561;28;20044;-77
2024/01/27 05:58:20;;;;;;;0.00;0.00;;;;;;;4.49;73.27;102456.88;15711248;28;20399;-78
2024/01/27 06:05:54;;;;;;;0.00;0.00;;;;;;;4.51;73.09;102460.22;15726943;28;20254;-76
2024/01/27 06:13:32;;;;;;;0.08;0.08;;;;;;;4.27;74.08;102468.44;15707768;28;20578;-77
2024/01/27 06:21:07;;;;;;;0.80;0.52;;;;;;;4.66;72.97;102467.91;15728048;28;20075;-76
2024/01/27 06:28:42;;;;;;;0.00;0.00;;;;;;;4.29;74.25;102482.47;15709569;28;20051;-76
2024/01/27 06:36:16;;;;;;;0.00;0.00;;;;;;;4.47;73.82;102506.66;15728144;28;20478;-76
2024/01/27 06:43:52;;;;;;;0.00;0.00;;;;;;;4.44;73.88;102498.13;15710695;28;20037;-76
2024/01/27 06:51:25;;;;;;;0.00;0.00;;;;;;;4.38;74.01;102503.91;15729857;28;20037;-77
2024/01/27 06:59:00;;;;;;;1.98;0.75;;;;;;;4.44;73.82;102512.25;15737520;28;20036;-76
2024/01/27 07:06:34;;;;;;;0.00;0.00;;;;;;;4.48;73.89;102534.97;15770761;22;20062;-51
2024/01/27 07:14:09;;;;;;;0.00;0.00;;;;;;;4.75;73.14;102533.63;15863341;28;20044;-52
2024/01/27 07:21:43;;;;;;;0.00;0.00;;;;;;;4.44;74.36;102556.59;15854777;28;20085;-52
2024/01/27 07:29:20;;;;;;;0.00;0.00;;;;;;;4.52;73.95;102556.81;15853648;28;20396;-47
2024/01/27 07:36:53;;;;;;;3.40;2.25;;;;;;;4.49;74.27;102573.88;15867280;28;20132;-49
2024/01/27 07:44:28;;;;;;;;;;;;;;;4.81;73.35;102583.69;15869664;28;20080;-49
2024/01/27 07:52:02;;;;;;;0.00;0.00;;;;;;;5.01;73.06;102600.66;15870098;28;19928;-49
2024/01/27 07:59:37;;;;;;;0.00;0.00;;;;;;;4.94;72.99;102600.28;15869496;28;20442;-51
2024/01/27 08:07:11;;;;;;;0.20;0.20;;;;;;;5.26;72.08;102615.38;15866498;28;20393;-52
2024/01/27 08:14:45;;;;;;;;;;;;;;;5.35;71.61;102623.44;15867769;28;20126;-48
2024/01/27 18:36:26;;;;;;;0.10;0.10;;;;;;;4.20;72.88;103022.78;15869587;28;20078;-51
2024/01/27 18:44:00;;;;;;;0.40;0.40;;;;;;;3.82;73.85;103045.00;15861632;28;20046;-51
2024/01/27 18:51:35;;;;;;;0.00;0.00;;;;;;;3.95;74.26;103041.44;15854514;28;20448;-50
2024/01/27 18:59:09;;;;;;;0.10;0.10;;;;;;;3.67;76.20;103053.19;15911367;27;20039;-49
2024/01/27 19:06:45;;;;;;;0.32;0.32;;;;;;;3.64;74.90;103053.38;15892088;27;20530;-51
2024/01/27 19:14:20;;;;;;;2.38;2.08;;;;;;;3.98;74.11;103062.50;15871138;28;20046;-52
2024/01/27 19:21:58;;;;;;;0.15;0.15;;;;;;;4.22;73.36;103059.88;15811855;22;20062;-44
2024/01/27 19:29:32;;;;;;;0.10;0.10;;;;;;;4.04;72.90;103067.34;15793827;28;20055;-46
2024/01/27 19:37:07;;;;;;;1.40;1.30;;;;;;;4.13;72.56;103068.50;15779482;28;20085;-44
2024/01/27 19:44:41;;;;;;;0.38;0.38;;;;;;;4.08;72.59;103069.69;15794292;28;20124;-50
2024/01/27 19:52:16;;;;;;;;;;;;;;;3.73;73.27;103084.63;15794149;28;20433;-45
2024/01/27 19:59:50;;;;;;;0.90;0.90;;;;;;;3.62;73.70;103088.03;15794334;28;19951;-47
2024/01/27 20:07:24;;;;;;;;;;;;;;;3.73;73.51;103089.94;15756491;28;20501;-47
2024/01/27 20:14:59;;;;;;;0.35;0.35;;;;;;;3.41;74.37;103089.53;15783657;28;20357;-47
2024/01/27 20:22:34;;;;;;;0.00;0.00;;;;;;;3.73;73.26;103097.91;15793420;28;20068;-48
2024/01/27 20:30:08;;;;;;;0.00;0.00;;;;;;;3.29;75.45;103101.81;15793895;28;20045;-45
2024/01/27 20:37:44;;;;;;;0.10;0.10;;;;;;;2.59;78.29;103104.72;15774102;28;20430;-49
2024/01/27 20:45:18;;;;;;;0.00;0.00;;;;;;;3.30;74.86;103104.38;15780624;28;20068;-46
2024/01/27 20:52:55;;;;;;;0.15;0.15;;;;;;;3.06;75.89;103106.88;15727739;28;20086;-47
2024/01/27 21:00:29;;;;;;;0.82;0.82;;;;;;;3.12;75.37;103124.19;15731484;28;20040;-43
2024/01/27 21:08:05;;;;;;;0.00;0.00;;;;;;;2.93;77.26;103116.59;15748730;28;20048;-46
2024/01/27 21:15:38;;;;;;;0.00;0.00;;;;;;;3.26;77.08;103124.13;15778414;28;20043;-49
2024/01/27 21:23:16;;;;;;;0.65;0.65;;;;;;;3.60;76.17;103120.97;15785915;28;20044;-49
2024/01/27 21:30:51;;;;;;;0.20;0.20;;;;;;;3.37;76.21;103123.41;15790421;28;20520;-51
2024/01/27 21:38:26;;;;;;;1.40;0.70;;;;;;;3.44;76.50;103139.75;15776152;28;20036;-52
2024/01/27 21:46:00;;;;;;;0.00;0.00;;;;;;;3.58;75.26;103127.22;15790028;28;20059;-44
2024/01/27 21:53:37;;;;;;;0.15;0.15;;;;;;;3.27;76.16;103127.63;15739437;28;20105;-44
2024/01/27 22:01:11;;;;;;;1.15;1.13;;;;;;;3.13;75.72;103133.03;15763997;28;20567;-47
2024/01/27 22:08:46;;;;;;;0.65;0.40;;;;;;;3.82;72.64;103137.09;15744990;28;20132;-44
2024/01/27 22:16:20;;;;;;;0.30;0.30;;;;;;;3.80;72.04;103131.91;15757855;28;20040;-49
2024/01/27 22:23:55;;;;;;;0.20;0.20;;;;;;;3.77;71.52;103128.59;15768833;28;20460;-48
2024/01/27 22:31:31;;;;;;;0.05;0.05;;;;;;;3.57;71.25;103146.78;15771442;28;20138;-47
2024/01/27 22:39:08;;;;;;;0.10;0.10;;;;;;;3.32;71.33;103147.59;15724343;28;20044;-47
2024/01/27 22:46:42;;;;;;;0.20;0.20;;;;;;;2.98;71.42;103151.63;15721669;28;20051;-45
2024/01/27 22:54:16;;;;;;;;;;;;;;;2.81;71.51;103152.75;15722388;28;20293;-52
2024/01/27 23:01:50;;;;;;;0.00;0.00;;;;;;;2.64;72.94;103158.31;15741449;28;19974;-48
2024/01/27 23:09:26;;;;;;;0.20;0.20;;;;;;;2.54;72.68;103147.44;15738867;28;20040;-45
2024/01/27 23:16:59;;;;;;;3.15;1.15;;;;;;;2.55;73.22;103159.75;15786058;28;20235;-46
2024/01/27 23:24:34;;;;;;;;;;;;;;;2.48;73.47;103147.00;15799258;28;20048;-46
2024/01/27 23:32:08;;;;;;;0.30;0.30;;;;;;;2.27;73.02;103150.03;15781248;28;19938;-48
2024/01/27 23:39:45;;;;;;;0.10;0.10;;;;;;;2.08;72.56;103141.53;15790886;28;20087;-44
2024/01/27 23:47:18;;;;;;;0.20;0.20;;;;;;;2.06;72.71;103143.44;15786703;28;20044;-46
2024/01/27 23:54:56;;;;;;;0.00;0.00;;;;;;;1.87;73.03;103134.94;15760621;28;20459;-47
